createdAt,value
2016-11-14T00:00:49.871Z,0
2016-11-14T00:01:49.888Z,0
2016-11-14T00:02:49.884Z,0
2016-11-14T00:03:49.906Z,0
2016-11-14T00:04:49.912Z,0
2016-11-14T00:05:49.944Z,0
2016-11-14T00:06:49.932Z,0
2016-11-14T00:07:49.950Z,0
2016-11-14T00:08:49.962Z,0
2016-11-14T00:09:49.970Z,0
2016-11-14T00:10:49.989Z,0
2016-11-14T00:11:49.981Z,0
2016-11-14T00:12:49.990Z,0
2016-11-14T00:13:50.002Z,0
2016-11-14T00:14:50.018Z,0
2016-11-14T00:15:50.031Z,0
2016-11-14T00:16:50.035Z,0
2016-11-14T00:17:50.042Z,0
2016-11-14T00:18:50.062Z,0
2016-11-14T00:19:50.066Z,0
2016-11-14T00:20:50.169Z,0
2016-11-14T00:21:50.071Z,0
2016-11-14T00:22:50.098Z,0
2016-11-14T00:23:50.099Z,0
2016-11-14T00:24:50.125Z,0
2016-11-14T00:25:50.128Z,0
2016-11-14T00:26:50.150Z,0
2016-11-14T00:27:50.154Z,0
2016-11-14T00:28:50.158Z,0
2016-11-14T00:29:50.161Z,0
2016-11-14T00:30:50.183Z,0
2016-11-14T00:31:50.191Z,0
2016-11-14T00:32:50.190Z,0
2016-11-14T00:33:50.214Z,0
2016-11-14T00:34:50.227Z,0
2016-11-14T00:35:50.225Z,0
2016-11-14T00:36:50.257Z,0
2016-11-14T00:37:50.259Z,0
2016-11-14T00:38:50.248Z,0
2016-11-14T00:39:50.272Z,0
2016-11-14T00:40:50.293Z,0
2016-11-14T00:41:50.306Z,0
2016-11-14T00:42:50.306Z,0
2016-11-14T00:43:50.384Z,0
2016-11-14T00:44:50.312Z,0
2016-11-14T00:45:50.324Z,0
2016-11-14T00:46:50.334Z,0
2016-11-14T00:47:50.348Z,0
2016-11-14T00:48:50.364Z,0
2016-11-14T00:49:50.368Z,0
2016-11-14T00:50:50.392Z,0
2016-11-14T00:51:50.385Z,0
2016-11-14T00:52:50.403Z,0
2016-11-14T00:53:50.402Z,0
2016-11-14T00:54:50.416Z,0
2016-11-14T00:55:50.430Z,0
2016-11-14T00:56:50.462Z,0
2016-11-14T00:57:50.456Z,0
2016-11-14T00:58:50.457Z,0
2016-11-14T00:59:50.481Z,0
2016-11-14T01:00:50.476Z,0
2016-11-14T01:01:50.486Z,0
2016-11-14T01:02:50.509Z,0
2016-11-14T01:03:50.510Z,0
2016-11-14T01:04:50.529Z,0
2016-11-14T01:05:50.525Z,0
2016-11-14T01:06:50.533Z,0
2016-11-14T01:07:50.588Z,0
2016-11-14T01:08:50.583Z,0
2016-11-14T01:09:50.564Z,0
2016-11-14T01:10:50.580Z,0
2016-11-14T01:11:50.588Z,0
2016-11-14T01:12:50.595Z,0
2016-11-14T01:13:50.615Z,0
2016-11-14T01:14:50.622Z,0
2016-11-14T01:15:50.626Z,0
2016-11-14T01:16:50.645Z,0
2016-11-14T01:17:50.643Z,0
2016-11-14T01:18:50.670Z,0
2016-11-14T01:19:50.672Z,0
2016-11-14T01:20:50.673Z,0
2016-11-14T01:21:50.686Z,0
2016-11-14T01:22:50.695Z,0
2016-11-14T01:23:50.706Z,0
2016-11-14T01:24:50.705Z,0
2016-11-14T01:25:50.721Z,0
2016-11-14T01:26:50.733Z,0
2016-11-14T01:27:50.786Z,0
2016-11-14T01:28:50.775Z,0
2016-11-14T01:29:50.759Z,0
2016-11-14T01:30:50.784Z,0
2016-11-14T01:31:50.790Z,0
2016-11-14T01:32:51.149Z,0
2016-11-14T01:33:50.802Z,0
2016-11-14T01:34:50.819Z,0
2016-11-14T01:35:50.824Z,0
2016-11-14T01:36:50.847Z,0
2016-11-14T01:37:50.843Z,0
2016-11-14T01:38:50.855Z,0
2016-11-14T01:39:50.867Z,0
2016-11-14T01:40:50.871Z,0
2016-11-14T01:41:50.896Z,0
2016-11-14T01:42:50.895Z,0
2016-11-14T01:43:50.921Z,0
2016-11-14T01:44:50.903Z,0
2016-11-14T01:45:50.920Z,0
2016-11-14T01:46:50.943Z,0
2016-11-14T01:47:50.964Z,0
2016-11-14T01:48:50.974Z,0
2016-11-14T01:49:50.961Z,0
2016-11-14T01:50:50.970Z,0
2016-11-14T01:51:51.021Z,0
2016-11-14T01:52:50.998Z,0
2016-11-14T01:53:51.015Z,0
2016-11-14T01:54:51.019Z,0
2016-11-14T01:55:51.023Z,0
2016-11-14T01:56:51.033Z,0
2016-11-14T01:57:51.051Z,0
2016-11-14T01:58:51.068Z,0
2016-11-14T01:59:51.056Z,0
2016-11-14T02:00:51.072Z,0
2016-11-14T02:01:51.069Z,0
2016-11-14T02:02:51.073Z,0
2016-11-14T02:03:51.100Z,0
2016-11-14T02:04:51.113Z,0
2016-11-14T02:05:51.142Z,0
2016-11-14T02:06:51.145Z,0
2016-11-14T02:07:51.135Z,0
2016-11-14T02:08:51.151Z,0
2016-11-14T02:09:51.154Z,0
2016-11-14T02:10:51.173Z,0
2016-11-14T02:11:51.190Z,0
2016-11-14T02:12:51.183Z,0
2016-11-14T02:13:51.197Z,0
2016-11-14T02:14:51.296Z,0
2016-11-14T02:15:51.215Z,0
2016-11-14T02:16:51.232Z,0
2016-11-14T02:17:51.222Z,0
2016-11-14T02:18:51.249Z,0
2016-11-14T02:19:51.256Z,0
2016-11-14T02:20:51.267Z,0
2016-11-14T02:21:51.285Z,0
2016-11-14T02:22:51.292Z,0
2016-11-14T02:23:51.289Z,0
2016-11-14T02:24:51.484Z,0
2016-11-14T02:25:51.356Z,0
2016-11-14T02:26:51.332Z,0
2016-11-14T02:27:51.331Z,0
2016-11-14T02:28:51.332Z,0
2016-11-14T02:29:51.351Z,0
2016-11-14T02:30:51.383Z,0
2016-11-14T02:31:51.375Z,0
2016-11-14T02:32:51.389Z,0
2016-11-14T02:33:51.389Z,0
2016-11-14T02:34:51.417Z,0
2016-11-14T02:35:51.410Z,0
2016-11-14T02:36:51.428Z,0
2016-11-14T02:37:51.426Z,0
2016-11-14T02:38:51.456Z,0
2016-11-14T02:39:51.444Z,0
2016-11-14T02:40:51.507Z,0
2016-11-14T02:41:51.476Z,0
2016-11-14T02:42:51.474Z,0
2016-11-14T02:43:51.553Z,0
2016-11-14T02:44:51.489Z,0
2016-11-14T02:45:51.501Z,0
2016-11-14T02:46:51.520Z,0
2016-11-14T02:47:51.533Z,0
2016-11-14T02:48:51.534Z,0
2016-11-14T02:49:51.548Z,0
2016-11-14T02:50:51.551Z,0
2016-11-14T02:51:51.562Z,0
2016-11-14T02:52:51.569Z,0
2016-11-14T02:53:51.576Z,0
2016-11-14T02:54:51.587Z,0
2016-11-14T02:55:51.606Z,0
2016-11-14T02:56:51.627Z,0
2016-11-14T02:57:51.621Z,0
2016-11-14T02:58:51.636Z,0
2016-11-14T02:59:51.642Z,0
2016-11-14T03:00:51.655Z,0
2016-11-14T03:01:51.662Z,0
2016-11-14T03:02:51.675Z,0
2016-11-14T03:03:51.689Z,0
2016-11-14T03:04:51.676Z,0
2016-11-14T03:05:51.706Z,0
2016-11-14T03:06:51.705Z,0
2016-11-14T03:07:51.710Z,0
2016-11-14T03:08:51.719Z,0
2016-11-14T03:09:51.731Z,0
2016-11-14T03:10:51.765Z,0
2016-11-14T03:11:51.772Z,0
2016-11-14T03:12:51.765Z,0
2016-11-14T03:13:51.774Z,0
2016-11-14T03:14:51.791Z,0
2016-11-14T03:15:51.877Z,0
2016-11-14T03:16:51.811Z,0
2016-11-14T03:17:51.815Z,0
2016-11-14T03:18:51.825Z,0
2016-11-14T03:19:51.834Z,0
2016-11-14T03:20:51.834Z,0
2016-11-14T03:21:51.838Z,0
2016-11-14T03:22:51.874Z,0
2016-11-14T03:23:51.859Z,0
2016-11-14T03:24:51.888Z,0
2016-11-14T03:25:51.884Z,0
2016-11-14T03:26:51.909Z,0
2016-11-14T03:27:51.906Z,0
2016-11-14T03:28:51.932Z,0
2016-11-14T03:29:51.934Z,0
2016-11-14T03:30:51.949Z,0
2016-11-14T03:31:51.942Z,0
2016-11-14T03:32:51.941Z,0
2016-11-14T03:33:51.967Z,0
2016-11-14T03:34:51.971Z,0
2016-11-14T03:35:51.974Z,0
2016-11-14T03:36:51.989Z,0
2016-11-14T03:37:52.000Z,0
2016-11-14T03:38:51.999Z,0
2016-11-14T03:39:52.017Z,0
2016-11-14T03:40:52.018Z,0
2016-11-14T03:41:52.035Z,0
2016-11-14T03:42:52.039Z,0
2016-11-14T03:43:52.065Z,0
2016-11-14T03:44:52.074Z,0
2016-11-14T03:45:52.121Z,0
2016-11-14T03:46:52.087Z,0
2016-11-14T03:47:52.092Z,0
2016-11-14T03:48:52.113Z,0
2016-11-14T03:49:52.117Z,0
2016-11-14T03:50:52.128Z,0
2016-11-14T03:51:52.131Z,0
2016-11-14T03:52:52.139Z,0
2016-11-14T03:53:52.151Z,0
2016-11-14T03:54:52.157Z,0
2016-11-14T03:55:52.171Z,0
2016-11-14T03:56:52.179Z,0
2016-11-14T03:57:52.203Z,0
2016-11-14T03:58:52.559Z,0
2016-11-14T03:59:52.293Z,0
2016-11-14T04:01:38.214Z,0
2016-11-14T04:01:52.223Z,0
2016-11-14T04:02:52.246Z,0
2016-11-14T04:03:52.254Z,0
2016-11-14T04:04:52.260Z,0
2016-11-14T04:05:52.260Z,0
2016-11-14T04:06:52.273Z,0
2016-11-14T04:07:52.292Z,0
2016-11-14T04:08:52.297Z,0
2016-11-14T04:09:52.306Z,0
2016-11-14T04:10:52.314Z,0
2016-11-14T04:11:52.325Z,0
2016-11-14T04:12:52.333Z,0
2016-11-14T04:13:52.349Z,0
2016-11-14T04:14:52.356Z,0
2016-11-14T04:15:52.369Z,0
2016-11-14T04:16:52.407Z,0
2016-11-14T04:17:52.457Z,0
2016-11-14T04:18:52.390Z,0
2016-11-14T04:19:52.409Z,0
2016-11-14T04:20:52.403Z,0
2016-11-14T04:21:52.433Z,0
2016-11-14T04:22:52.446Z,0
2016-11-14T04:23:52.447Z,0
2016-11-14T04:24:52.442Z,0
2016-11-14T04:25:52.458Z,0
2016-11-14T04:26:52.468Z,0
2016-11-14T04:27:52.476Z,0
2016-11-14T04:28:52.481Z,0
2016-11-14T04:29:52.492Z,0
2016-11-14T04:30:52.512Z,0
2016-11-14T04:31:52.510Z,0
2016-11-14T04:32:52.527Z,0
2016-11-14T04:33:52.524Z,0
2016-11-14T04:34:52.536Z,0
2016-11-14T04:35:52.560Z,0
2016-11-14T04:36:52.557Z,0
2016-11-14T04:37:52.568Z,0
2016-11-14T04:38:52.574Z,0
2016-11-14T04:39:52.600Z,0
2016-11-14T04:40:52.685Z,0
2016-11-14T04:41:52.613Z,0
2016-11-14T04:42:52.619Z,0
2016-11-14T04:43:52.616Z,0
2016-11-14T04:44:52.627Z,0
2016-11-14T04:45:52.649Z,0
2016-11-14T04:46:52.663Z,0
2016-11-14T04:47:52.669Z,0
2016-11-14T04:48:52.664Z,0
2016-11-14T04:49:52.693Z,0
2016-11-14T04:50:52.678Z,0
2016-11-14T04:51:52.705Z,0
2016-11-14T04:52:52.700Z,0
2016-11-14T04:53:52.721Z,0
2016-11-14T04:54:52.722Z,0
2016-11-14T04:55:52.743Z,0
2016-11-14T04:56:52.733Z,0
2016-11-14T04:57:52.754Z,0
2016-11-14T04:58:52.852Z,0
2016-11-14T04:59:52.777Z,0
2016-11-14T05:00:52.784Z,0
2016-11-14T05:01:52.783Z,0
2016-11-14T05:02:52.798Z,0
2016-11-14T05:03:52.886Z,0
2016-11-14T05:04:52.819Z,0
2016-11-14T05:05:52.821Z,0
2016-11-14T05:06:52.840Z,0
2016-11-14T05:07:52.842Z,0
2016-11-14T05:08:52.888Z,0
2016-11-14T05:09:52.861Z,0
2016-11-14T05:10:52.877Z,0
2016-11-14T05:11:52.881Z,0
2016-11-14T05:12:52.898Z,0
2016-11-14T05:13:52.898Z,0
2016-11-14T05:14:52.907Z,0
2016-11-14T05:15:52.916Z,0
2016-11-14T05:16:52.922Z,0
2016-11-14T05:17:52.944Z,0
2016-11-14T05:18:52.956Z,0
2016-11-14T05:19:52.961Z,0
2016-11-14T05:20:52.953Z,0
2016-11-14T05:22:07.811Z,0
2016-11-14T05:22:52.988Z,0
2016-11-14T05:23:52.999Z,0
2016-11-14T05:24:52.999Z,0
2016-11-14T05:25:53.009Z,0
2016-11-14T05:26:53.024Z,0
2016-11-14T05:27:53.035Z,0
2016-11-14T05:28:53.055Z,0
2016-11-14T05:29:53.049Z,0
2016-11-14T05:30:53.051Z,0
2016-11-14T05:31:53.063Z,0
2016-11-14T05:32:53.166Z,0
2016-11-14T05:33:53.079Z,0
2016-11-14T05:34:53.089Z,0
2016-11-14T05:35:53.097Z,0
2016-11-14T05:36:53.110Z,0
2016-11-14T05:37:53.163Z,0
2016-11-14T05:38:53.128Z,0
2016-11-14T05:39:53.142Z,0
2016-11-14T05:40:53.189Z,0
2016-11-14T05:41:53.191Z,0
2016-11-14T05:42:53.161Z,0
2016-11-14T05:43:53.172Z,0
2016-11-14T05:44:53.233Z,0
2016-11-14T05:45:53.203Z,0
2016-11-14T05:46:53.202Z,0
2016-11-14T05:47:53.216Z,0
2016-11-14T05:48:53.219Z,0
2016-11-14T05:49:53.212Z,0
2016-11-14T05:50:53.234Z,0
2016-11-14T05:51:53.321Z,0
2016-11-14T05:52:53.248Z,0
2016-11-14T05:53:53.263Z,0
2016-11-14T05:54:53.260Z,0
2016-11-14T05:55:53.276Z,0
2016-11-14T05:56:53.286Z,0
2016-11-14T05:57:53.338Z,0
2016-11-14T05:58:53.300Z,0
2016-11-14T05:59:53.310Z,0
2016-11-14T06:00:53.312Z,0
2016-11-14T06:01:53.366Z,0
2016-11-14T06:02:53.340Z,0
2016-11-14T06:03:53.345Z,0
2016-11-14T06:04:53.351Z,0
2016-11-14T06:05:53.364Z,0
2016-11-14T06:06:53.387Z,0
2016-11-14T06:07:53.384Z,0
2016-11-14T06:08:53.385Z,0
2016-11-14T06:09:53.404Z,0
2016-11-14T06:10:53.422Z,0
2016-11-14T06:11:53.415Z,0
2016-11-14T06:12:53.431Z,0
2016-11-14T06:13:53.430Z,0
2016-11-14T06:14:53.454Z,0
2016-11-14T06:15:53.467Z,0
2016-11-14T06:16:53.463Z,0
2016-11-14T06:17:53.469Z,0
2016-11-14T06:18:53.476Z,0
2016-11-14T06:19:53.499Z,0
2016-11-14T06:20:53.503Z,0
2016-11-14T06:21:53.522Z,0
2016-11-14T06:22:53.518Z,0
2016-11-14T06:23:53.575Z,0
2016-11-14T06:24:53.545Z,0
2016-11-14T06:25:53.550Z,0
2016-11-14T06:26:53.563Z,0
2016-11-14T06:27:53.579Z,0
2016-11-14T06:28:53.575Z,0
2016-11-14T06:29:53.581Z,0
2016-11-14T06:30:53.586Z,0
2016-11-14T06:31:53.596Z,0
2016-11-14T06:32:53.610Z,0
2016-11-14T06:33:53.652Z,0
2016-11-14T06:34:53.630Z,0
2016-11-14T06:35:53.641Z,0
2016-11-14T06:36:53.649Z,0
2016-11-14T06:37:53.655Z,0
2016-11-14T06:38:53.672Z,5
2016-11-14T06:39:53.671Z,5
2016-11-14T06:40:53.686Z,5
2016-11-14T06:41:53.689Z,5
2016-11-14T06:42:53.689Z,5
2016-11-14T06:43:53.708Z,5
2016-11-14T06:44:53.735Z,5
2016-11-14T06:45:53.736Z,5
2016-11-14T06:46:53.729Z,10
2016-11-14T06:47:53.800Z,10
2016-11-14T06:48:53.760Z,10
2016-11-14T06:49:53.774Z,10
2016-11-14T06:50:53.773Z,10
2016-11-14T06:51:53.781Z,10
2016-11-14T06:52:53.786Z,15
2016-11-14T06:53:53.808Z,15
2016-11-14T06:54:53.814Z,15
2016-11-14T06:55:53.810Z,15
2016-11-14T06:56:53.821Z,15
2016-11-14T06:57:53.842Z,20
2016-11-14T06:58:53.863Z,20
2016-11-14T06:59:53.869Z,20
2016-11-14T07:00:53.874Z,20
2016-11-14T07:01:53.872Z,25
2016-11-14T07:02:53.889Z,25
2016-11-14T07:03:53.899Z,25
2016-11-14T07:04:53.907Z,25
2016-11-14T07:05:53.917Z,30
2016-11-14T07:06:53.915Z,30
2016-11-14T07:07:53.932Z,30
2016-11-14T07:08:53.946Z,30
2016-11-14T07:09:53.953Z,35
2016-11-14T07:10:53.965Z,35
2016-11-14T07:11:53.998Z,35
2016-11-14T07:12:53.989Z,35
2016-11-14T07:13:54.015Z,40
2016-11-14T07:14:54.005Z,40
2016-11-14T07:15:53.997Z,40
2016-11-14T07:16:54.019Z,40
2016-11-14T07:17:54.019Z,40
2016-11-14T07:18:54.033Z,45
2016-11-14T07:19:54.043Z,45
2016-11-14T07:20:54.052Z,45
2016-11-14T07:21:54.069Z,45
2016-11-14T07:22:54.074Z,50
2016-11-14T07:23:54.094Z,50
2016-11-14T07:24:54.100Z,50
2016-11-14T07:25:54.105Z,55
2016-11-14T07:26:54.108Z,55
2016-11-14T07:27:54.111Z,55
2016-11-14T07:28:54.116Z,60
2016-11-14T07:29:54.142Z,60
2016-11-14T07:30:54.148Z,60
2016-11-14T07:31:54.161Z,65
2016-11-14T07:32:54.158Z,65
2016-11-14T07:33:54.185Z,65
2016-11-14T07:34:54.190Z,65
2016-11-14T07:35:54.186Z,70
2016-11-14T07:36:54.206Z,70
2016-11-14T07:37:54.882Z,70
2016-11-14T07:38:54.217Z,70
2016-11-14T07:39:54.223Z,75
2016-11-14T07:40:54.251Z,75
2016-11-14T07:41:54.252Z,75
2016-11-14T07:42:54.282Z,75
2016-11-14T07:43:54.274Z,80
2016-11-14T07:44:54.285Z,80
2016-11-14T07:45:54.296Z,80
2016-11-14T07:46:54.293Z,85
2016-11-14T07:47:54.297Z,85
2016-11-14T07:48:54.321Z,85
2016-11-14T07:49:54.336Z,85
2016-11-14T07:51:54.362Z,90
2016-11-14T07:52:54.363Z,90
2016-11-14T07:53:54.378Z,90
2016-11-14T07:54:54.404Z,90
2016-11-14T07:55:54.683Z,90
2016-11-14T07:56:54.695Z,90
2016-11-14T07:57:54.407Z,95
2016-11-14T07:58:54.414Z,95
2016-11-14T07:59:54.433Z,95
2016-11-14T08:00:54.435Z,95
2016-11-14T08:01:54.472Z,100
2016-11-14T08:02:54.460Z,100
2016-11-14T08:03:54.462Z,100
2016-11-14T08:04:54.514Z,100
2016-11-14T08:05:54.485Z,105
2016-11-14T08:06:54.540Z,105
2016-11-14T08:07:54.537Z,105
2016-11-14T08:08:54.515Z,110
2016-11-14T08:09:54.532Z,110
2016-11-14T08:10:54.572Z,110
2016-11-14T08:11:54.566Z,110
2016-11-14T08:12:54.567Z,110
2016-11-14T08:13:54.584Z,110
2016-11-14T08:14:54.577Z,115
2016-11-14T08:15:54.600Z,115
2016-11-14T08:16:54.603Z,115
2016-11-14T08:17:54.623Z,115
2016-11-14T08:18:54.622Z,120
2016-11-14T08:19:54.641Z,120
2016-11-14T08:20:54.659Z,120
2016-11-14T08:21:54.654Z,120
2016-11-14T08:22:54.674Z,120
2016-11-14T08:23:54.681Z,125
2016-11-14T08:24:54.692Z,125
2016-11-14T08:25:54.699Z,125
2016-11-14T08:26:54.703Z,125
2016-11-14T08:27:54.720Z,125
2016-11-14T08:28:54.745Z,130
2016-11-14T08:29:54.751Z,130
2016-11-14T08:30:54.756Z,130
2016-11-14T08:31:54.766Z,130
2016-11-14T08:32:54.767Z,130
2016-11-14T08:33:54.788Z,130
2016-11-14T08:34:54.800Z,130
2016-11-14T08:35:54.807Z,135
2016-11-14T08:36:54.819Z,135
2016-11-14T08:37:54.834Z,135
2016-11-14T08:38:54.850Z,135
2016-11-14T08:39:54.866Z,140
2016-11-14T08:40:54.872Z,135
2016-11-14T08:41:54.873Z,140
2016-11-14T08:42:54.896Z,140
2016-11-14T08:43:55.279Z,140
2016-11-14T08:44:54.916Z,140
2016-11-14T08:45:54.953Z,140
2016-11-14T08:46:54.942Z,145
2016-11-14T08:47:54.948Z,145
2016-11-14T08:48:54.968Z,145
2016-11-14T08:49:54.963Z,145
2016-11-14T08:50:54.990Z,145
2016-11-14T08:51:54.997Z,145
2016-11-14T08:52:55.002Z,150
2016-11-14T08:53:55.016Z,150
2016-11-14T08:54:55.030Z,150
2016-11-14T08:55:55.038Z,150
2016-11-14T08:56:55.046Z,150
2016-11-14T08:57:55.059Z,150
2016-11-14T08:58:55.074Z,150
2016-11-14T08:59:55.088Z,155
2016-11-14T09:00:55.104Z,155
2016-11-14T09:01:55.100Z,155
2016-11-14T09:02:55.111Z,155
2016-11-14T09:03:55.133Z,155
2016-11-14T09:04:55.147Z,155
2016-11-14T09:05:55.155Z,155
2016-11-14T09:06:55.155Z,155
2016-11-14T09:07:55.179Z,155
2016-11-14T09:08:55.199Z,155
2016-11-14T09:09:55.199Z,155
2016-11-14T09:10:55.222Z,155
2016-11-14T09:11:55.235Z,155
2016-11-14T09:12:55.252Z,155
2016-11-14T09:13:55.299Z,155
2016-11-14T09:14:55.263Z,155
2016-11-14T09:15:55.279Z,155
2016-11-14T09:16:55.290Z,160
2016-11-14T09:17:55.310Z,160
2016-11-14T09:18:55.324Z,160
2016-11-14T09:19:55.328Z,165
2016-11-14T09:20:55.331Z,160
2016-11-14T09:21:55.358Z,160
2016-11-14T09:22:55.389Z,160
2016-11-14T09:23:55.377Z,160
2016-11-14T09:24:55.449Z,160
2016-11-14T09:25:55.428Z,160
2016-11-14T09:26:55.479Z,160
2016-11-14T09:27:55.463Z,160
2016-11-14T09:28:55.481Z,160
2016-11-14T09:29:55.506Z,160
2016-11-14T09:30:55.544Z,160
2016-11-14T09:31:55.478Z,160
2016-11-14T09:32:55.602Z,160
2016-11-14T09:33:55.528Z,160
2016-11-14T09:34:55.600Z,160
2016-11-14T09:35:55.523Z,155
2016-11-14T09:36:55.584Z,160
2016-11-14T09:37:55.553Z,150
2016-11-14T09:38:55.634Z,155
2016-11-14T09:39:55.622Z,160
2016-11-14T09:40:55.644Z,155
2016-11-14T09:41:55.599Z,155
2016-11-14T09:42:55.700Z,160
2016-11-14T09:43:55.662Z,160
2016-11-14T09:44:55.701Z,145
2016-11-14T09:45:55.702Z,145
2016-11-14T09:46:55.740Z,145
2016-11-14T09:47:55.729Z,145
2016-11-14T09:48:55.747Z,150
2016-11-14T09:49:55.743Z,155
2016-11-14T09:50:55.722Z,160
2016-11-14T09:51:55.738Z,160
2016-11-14T09:52:55.740Z,160
2016-11-14T09:53:55.767Z,160
2016-11-14T09:54:55.823Z,160
2016-11-14T09:55:55.790Z,165
2016-11-14T09:56:55.795Z,160
2016-11-14T09:57:55.867Z,150
2016-11-14T09:58:55.823Z,135
2016-11-14T09:59:55.839Z,140
2016-11-14T10:00:55.859Z,155
2016-11-14T10:01:55.922Z,135
2016-11-14T10:02:55.925Z,130
2016-11-14T10:03:55.927Z,140
2016-11-14T10:04:55.907Z,140
2016-11-14T10:05:55.924Z,165
2016-11-14T10:06:55.954Z,170
2016-11-14T10:07:55.948Z,170
2016-11-14T10:08:56.656Z,170
2016-11-14T10:09:55.961Z,170
2016-11-14T10:10:55.990Z,170
2016-11-14T10:11:55.993Z,170
2016-11-14T10:12:56.007Z,170
2016-11-14T10:13:56.024Z,165
2016-11-14T10:14:56.070Z,160
2016-11-14T10:15:56.044Z,160
2016-11-14T10:16:56.049Z,160
2016-11-14T10:17:56.116Z,170
2016-11-14T10:18:56.079Z,165
2016-11-14T10:19:56.147Z,170
2016-11-14T10:20:56.099Z,175
2016-11-14T10:21:56.121Z,175
2016-11-14T10:22:56.147Z,175
2016-11-14T10:23:56.156Z,170
2016-11-14T10:24:56.171Z,170
2016-11-14T10:25:56.170Z,160
2016-11-14T10:26:56.187Z,180
2016-11-14T10:27:56.206Z,175
2016-11-14T10:28:56.214Z,170
2016-11-14T10:29:56.320Z,170
2016-11-14T10:30:56.219Z,175
2016-11-14T10:31:56.259Z,180
2016-11-14T10:32:56.281Z,175
2016-11-14T10:33:56.284Z,180
2016-11-14T10:34:56.300Z,175
2016-11-14T10:35:56.359Z,175
2016-11-14T10:36:56.357Z,170
2016-11-14T10:37:56.338Z,175
2016-11-14T10:38:56.349Z,175
2016-11-14T10:39:56.494Z,175
2016-11-14T10:40:56.410Z,175
2016-11-14T10:41:56.377Z,175
2016-11-14T10:42:56.401Z,175
2016-11-14T10:43:56.420Z,175
2016-11-14T10:44:56.423Z,175
2016-11-14T10:45:56.442Z,175
2016-11-14T10:46:56.453Z,170
2016-11-14T10:47:56.467Z,160
2016-11-14T10:48:56.544Z,155
2016-11-14T10:49:56.489Z,170
2016-11-14T10:50:56.512Z,145
2016-11-14T10:51:56.518Z,150
2016-11-14T10:52:56.535Z,155
2016-11-14T10:53:56.548Z,150
2016-11-14T10:54:56.571Z,170
2016-11-14T10:55:56.571Z,160
2016-11-14T10:56:56.672Z,160
2016-11-14T10:57:56.598Z,170
2016-11-14T10:58:56.624Z,160
2016-11-14T10:59:56.623Z,165
2016-11-14T11:00:56.638Z,175
2016-11-14T11:01:56.663Z,175
2016-11-14T11:02:56.675Z,165
2016-11-14T11:03:56.686Z,150
2016-11-14T11:04:56.703Z,180
2016-11-14T11:05:56.714Z,175
2016-11-14T11:06:56.720Z,175
2016-11-14T11:07:56.771Z,180
2016-11-14T11:08:56.735Z,180
2016-11-14T11:09:56.754Z,175
2016-11-14T11:10:56.777Z,180
2016-11-14T11:11:56.796Z,170
2016-11-14T11:12:56.811Z,175
2016-11-14T11:13:56.808Z,175
2016-11-14T11:14:56.852Z,175
2016-11-14T11:15:56.849Z,175
2016-11-14T11:16:56.863Z,170
2016-11-14T11:17:56.881Z,170
2016-11-14T11:18:56.930Z,175
2016-11-14T11:19:56.903Z,175
2016-11-14T11:20:56.938Z,180
2016-11-14T11:21:56.926Z,180
2016-11-14T11:22:56.942Z,180
2016-11-14T11:23:56.960Z,180
2016-11-14T11:24:56.968Z,165
2016-11-14T11:25:56.994Z,160
2016-11-14T11:26:57.054Z,160
2016-11-14T11:27:57.052Z,170
2016-11-14T11:28:57.029Z,190
2016-11-14T11:29:57.041Z,190
2016-11-14T11:30:57.057Z,190
2016-11-14T11:31:57.065Z,190
2016-11-14T11:32:57.119Z,185
2016-11-14T11:33:57.143Z,180
2016-11-14T11:34:57.114Z,170
2016-11-14T11:35:57.115Z,185
2016-11-14T11:36:57.142Z,170
2016-11-14T11:37:57.157Z,160
2016-11-14T11:38:57.162Z,165
2016-11-14T11:39:57.184Z,165
2016-11-14T11:40:57.197Z,155
2016-11-14T11:41:57.242Z,160
2016-11-14T11:42:57.221Z,165
2016-11-14T11:43:57.260Z,165
2016-11-14T11:44:57.246Z,175
2016-11-14T11:45:57.302Z,180
2016-11-14T11:46:57.285Z,175
2016-11-14T11:47:57.365Z,170
2016-11-14T11:48:57.308Z,170
2016-11-14T11:49:57.321Z,170
2016-11-14T11:50:57.337Z,170
2016-11-14T11:51:57.347Z,175
2016-11-14T11:52:57.370Z,175
2016-11-14T11:53:57.371Z,175
2016-11-14T11:54:57.395Z,170
2016-11-14T11:55:57.403Z,170
2016-11-14T11:56:57.417Z,170
2016-11-14T11:57:57.447Z,170
2016-11-14T11:58:57.443Z,160
2016-11-14T11:59:57.462Z,170
2016-11-14T12:00:57.507Z,165
2016-11-14T12:01:57.479Z,160
2016-11-14T12:02:57.533Z,165
2016-11-14T12:03:57.595Z,165
2016-11-14T12:04:57.520Z,165
2016-11-14T12:05:57.566Z,165
2016-11-14T12:06:57.583Z,165
2016-11-14T12:07:57.577Z,165
2016-11-14T12:08:57.591Z,150
2016-11-14T12:09:57.596Z,170
2016-11-14T12:10:57.613Z,170
2016-11-14T12:11:57.616Z,165
2016-11-14T12:12:57.633Z,165
2016-11-14T12:13:57.657Z,165
2016-11-14T12:14:57.653Z,165
2016-11-14T12:15:57.683Z,165
2016-11-14T12:16:57.685Z,165
2016-11-14T12:17:57.707Z,165
2016-11-14T12:18:57.771Z,165
2016-11-14T12:19:57.732Z,165
2016-11-14T12:20:57.751Z,160
2016-11-14T12:21:57.772Z,155
2016-11-14T12:22:57.774Z,160
2016-11-14T12:23:57.792Z,165
2016-11-14T12:24:57.820Z,160
2016-11-14T12:25:57.823Z,155
2016-11-14T12:26:57.834Z,155
2016-11-14T12:27:57.846Z,155
2016-11-14T12:28:57.864Z,155
2016-11-14T12:29:57.907Z,155
2016-11-14T12:30:57.929Z,155
2016-11-14T12:31:58.002Z,155
2016-11-14T12:32:57.920Z,155
2016-11-14T12:33:57.940Z,155
2016-11-14T12:34:57.953Z,150
2016-11-14T12:35:57.950Z,145
2016-11-14T12:36:58.090Z,150
2016-11-14T12:37:57.991Z,135
2016-11-14T12:38:58.007Z,130
2016-11-14T12:39:58.049Z,135
2016-11-14T12:40:58.033Z,140
2016-11-14T12:41:58.042Z,145
2016-11-14T12:42:58.057Z,145
2016-11-14T12:43:58.083Z,150
2016-11-14T12:44:58.076Z,150
2016-11-14T12:45:58.104Z,150
2016-11-14T12:46:58.109Z,150
2016-11-14T12:47:58.131Z,140
2016-11-14T12:48:58.140Z,140
2016-11-14T12:49:58.169Z,140
2016-11-14T12:50:58.173Z,130
2016-11-14T12:51:58.192Z,125
2016-11-14T12:52:58.201Z,125
2016-11-14T12:53:58.226Z,120
2016-11-14T12:54:58.233Z,115
2016-11-14T12:55:58.267Z,115
2016-11-14T12:56:58.247Z,115
2016-11-14T12:57:58.285Z,115
2016-11-14T12:58:58.322Z,110
2016-11-14T12:59:58.309Z,105
2016-11-14T13:00:58.318Z,100
2016-11-14T13:01:58.336Z,105
2016-11-14T13:02:58.343Z,105
2016-11-14T13:03:58.395Z,105
2016-11-14T13:04:58.372Z,105
2016-11-14T13:05:58.432Z,110
2016-11-14T13:06:58.470Z,115
2016-11-14T13:07:58.459Z,110
2016-11-14T13:08:58.501Z,110
2016-11-14T13:09:58.473Z,105
2016-11-14T13:10:58.464Z,100
2016-11-14T13:11:58.482Z,100
2016-11-14T13:12:58.477Z,100
2016-11-14T13:14:13.349Z,100
2016-11-14T13:14:58.508Z,100
2016-11-14T13:15:58.528Z,100
2016-11-14T13:16:58.534Z,100
2016-11-14T13:17:58.558Z,105
2016-11-14T13:18:58.566Z,105
2016-11-14T13:19:58.585Z,110
2016-11-14T13:20:58.637Z,110
2016-11-14T13:21:58.619Z,110
2016-11-14T13:22:58.622Z,110
2016-11-14T13:23:58.624Z,110
2016-11-14T13:24:58.652Z,110
2016-11-14T13:25:58.668Z,105
2016-11-14T13:26:58.678Z,100
2016-11-14T13:27:58.697Z,95
2016-11-14T13:28:58.711Z,95
2016-11-14T13:29:58.729Z,95
2016-11-14T13:30:58.731Z,90
2016-11-14T13:31:58.757Z,90
2016-11-14T13:32:58.759Z,90
2016-11-14T13:33:58.770Z,90
2016-11-14T13:34:58.799Z,90
2016-11-14T13:35:58.809Z,90
2016-11-14T13:36:58.856Z,85
2016-11-14T13:37:58.889Z,85
2016-11-14T13:38:58.919Z,90
2016-11-14T13:39:58.871Z,90
2016-11-14T13:40:58.869Z,90
2016-11-14T13:41:58.871Z,85
2016-11-14T13:42:58.901Z,85
2016-11-14T13:43:58.923Z,85
2016-11-14T13:44:58.930Z,85
2016-11-14T13:45:58.931Z,85
2016-11-14T13:46:59.083Z,85
2016-11-14T13:47:58.967Z,85
2016-11-14T13:48:58.995Z,90
2016-11-14T13:49:58.991Z,90
2016-11-14T13:50:59.022Z,90
2016-11-14T13:51:59.029Z,85
2016-11-14T13:52:59.049Z,85
2016-11-14T13:53:59.061Z,80
2016-11-14T13:54:59.077Z,80
2016-11-14T13:55:59.090Z,75
2016-11-14T13:56:59.098Z,70
2016-11-14T13:57:59.119Z,70
2016-11-14T13:58:59.123Z,70
2016-11-14T13:59:59.158Z,65
2016-11-14T14:00:59.138Z,65
2016-11-14T14:01:59.156Z,60
2016-11-14T14:02:59.189Z,60
2016-11-14T14:03:59.193Z,60
2016-11-14T14:04:59.203Z,60
2016-11-14T14:05:59.242Z,55
2016-11-14T14:06:59.240Z,55
2016-11-14T14:07:59.265Z,55
2016-11-14T14:08:59.299Z,55
2016-11-14T14:09:59.277Z,55
2016-11-14T14:10:59.295Z,55
2016-11-14T14:11:59.304Z,55
2016-11-14T14:12:59.329Z,55
2016-11-14T14:13:59.325Z,55
2016-11-14T14:14:59.347Z,50
2016-11-14T14:15:59.351Z,50
2016-11-14T14:16:59.374Z,50
2016-11-14T14:17:59.391Z,50
2016-11-14T14:18:59.406Z,50
2016-11-14T14:19:59.414Z,50